Time;durP1;ratioP1;P1;durP2;ratioP2;P2;SDS_P1;SDS_P2;PMS_P1;PMS_P2;Temp;Humidity;BMP_temperature;BMP_pressure;BME280_temperature;BME280_humidity;BME280_pressure;Samples;Min_cycle;Max_cycle;Signal;HPM_P1;HPM_P2
2022/08/14 00:02:05;;;;;;;;;;;;;;;20.99;100.00;101234.47;2612668;36;19977;-53
2022/08/14 00:04:33;;;;;;;;;;;;;;;20.97;100.00;101233.78;2613534;36;19954;-53
2022/08/14 00:07:04;;;;;;;;;;;;;;;20.83;100.00;101232.84;2612242;36;19951;-49
2022/08/14 00:09:32;;;;;;;;;;;;;;;20.84;100.00;101222.72;2614225;31;20439;-49
2022/08/14 00:12:00;;;;;;;;;;;;;;;20.85;100.00;101218.94;2630711;36;20283;-51
2022/08/14 00:14:29;;;;;;;;;;;;;;;20.79;100.00;101219.75;2612892;31;19954;-51
2022/08/14 00:16:57;;;;;;;;;;;;;;;20.90;100.00;101219.19;2610909;36;19981;-51
2022/08/14 00:19:25;;;;;;;;;;;;;;;20.99;100.00;101215.31;2611694;36;19950;-51
2022/08/14 00:21:56;;;;;;;;;;;;;;;21.03;100.00;101209.44;2611258;36;19973;-49
2022/08/14 00:24:27;;;;;;;;;;;;;;;21.02;100.00;101208.56;2613319;36;20536;-50
2022/08/14 00:26:55;;;;;;;;;;;;;;;20.99;100.00;101207.09;2613272;31;19951;-50
2022/08/14 00:29:24;;;;;;;;;;;;;;;20.88;100.00;101207.63;2613793;36;19961;-49
2022/08/14 00:31:52;;;;;;;;;;;;;;;20.86;100.00;101212.41;2610839;36;19982;-50
2022/08/14 00:34:20;;;;;;;;;;;;;;;20.92;100.00;101203.44;2612397;36;19946;-51
2022/08/14 00:36:48;;;;;;;;;;;;;;;20.96;100.00;101196.53;2610971;36;19946;-50
2022/08/14 00:39:16;;;;;;;;;;;;;;;20.99;100.00;101203.50;2612824;36;19973;-49
2022/08/14 00:41:47;;;;;;;;;;;;;;;20.88;100.00;101193.94;2613861;31;19947;-49
2022/08/14 00:44:15;;;;;;;;;;;;;;;20.85;100.00;101197.06;2613326;31;19939;-47
2022/08/14 00:46:44;;;;;;;;;;;;;;;20.79;100.00;101192.38;2614073;36;19946;-51
2022/08/14 00:49:13;;;;;;;;;;;;;;;20.80;100.00;101188.59;2614755;36;19950;-50
2022/08/14 00:51:42;;;;;;;;;;;;;;;20.72;100.00;101186.00;2614699;36;20404;-52
2022/08/14 00:54:11;;;;;;;;;;;;;;;20.62;100.00;101176.19;2614266;36;19978;-51
2022/08/14 00:56:39;;;;;;;;;;;;;;;20.56;100.00;101178.84;2613604;36;19938;-47
2022/08/14 00:59:10;;;;;;;;;;;;;;;20.60;100.00;101174.69;2614825;36;19950;-52
2022/08/14 01:01:39;;;;;;;;;;;;;;;20.60;100.00;101171.97;2613897;36;19947;-50
2022/08/14 01:04:07;;;;;;;;;;;;;;;20.56;100.00;101168.75;2615182;36;19946;-50
2022/08/14 01:06:35;;;;;;;;;;;;;;;20.53;100.00;101166.41;2632388;36;19981;-51
2022/08/14 01:09:03;;;;;;;;;;;;;;;20.42;100.00;101166.91;2615323;31;19978;-52
2022/08/14 01:11:33;;;;;;;;;;;;;;;20.48;100.00;101168.91;2615092;36;19950;-52
2022/08/14 01:14:01;;;;;;;;;;;;;;;20.41;100.00;101157.03;2615191;36;19947;-49
2022/08/14 01:16:32;;;;;;;;;;;;;;;20.47;100.00;101159.00;2614598;36;20605;-52
2022/08/14 01:21:45;;;;;;;;;;;;;;;20.35;100.00;101147.72;2614525;36;20476;-50
2022/08/14 01:24:15;;;;;;;;;;;;;;;20.39;100.00;101153.63;2615015;31;19946;-50
2022/08/14 01:26:45;;;;;;;;;;;;;;;20.37;100.00;101140.16;2615137;36;19946;-53
2022/08/14 01:29:13;;;;;;;;;;;;;;;20.33;100.00;101140.75;2612198;36;19958;-51
2022/08/14 01:31:44;;;;;;;;;;;;;;;20.31;100.00;101139.06;2613329;36;19981;-51
2022/08/14 01:34:12;;;;;;;;;;;;;;;20.35;100.00;101141.41;2613633;36;19951;-50
2022/08/14 01:36:42;;;;;;;;;;;;;;;20.33;100.00;101133.38;2614791;36;20483;-50
2022/08/14 01:39:11;;;;;;;;;;;;;;;20.38;100.00;101122.72;2614857;36;19955;-50
2022/08/14 01:41:40;;;;;;;;;;;;;;;20.39;100.00;101121.69;2615734;31;19957;-50
2022/08/14 01:44:11;;;;;;;;;;;;;;;20.43;100.00;101124.88;2615255;36;20379;-48
2022/08/14 01:46:40;;;;;;;;;;;;;;;20.32;100.00;101131.72;2614405;36;19947;-47
2022/08/14 01:49:09;;;;;;;;;;;;;;;20.30;100.00;101129.19;2614816;36;19946;-48
2022/08/14 01:51:38;;;;;;;;;;;;;;;20.27;100.00;101121.38;2613790;36;19981;-51
2022/08/14 01:54:09;;;;;;;;;;;;;;;20.22;100.00;101121.09;2614589;36;20042;-52
2022/08/14 01:56:39;;;;;;;;;;;;;;;20.16;100.00;101116.41;2614639;36;19977;-47
2022/08/14 01:59:08;;;;;;;;;;;;;;;20.18;100.00;101119.78;2615282;36;20058;-48
2022/08/14 02:01:37;;;;;;;;;;;;;;;20.10;100.00;101117.19;2614081;36;19947;-52
2022/08/14 02:04:06;;;;;;;;;;;;;;;19.95;100.00;101112.59;2614510;36;19954;-50
2022/08/14 02:06:37;;;;;;;;;;;;;;;20.07;100.00;101106.63;2614686;54;19973;-49
2022/08/14 02:09:05;;;;;;;;;;;;;;;19.97;100.00;101111.56;2613370;39;20363;-52
2022/08/14 02:11:36;;;;;;;;;;;;;;;19.99;100.00;101104.84;2614071;54;19953;-49
2022/08/14 02:14:05;;;;;;;;;;;;;;;19.93;100.00;101091.97;2612590;54;19950;-50
2022/08/14 02:16:37;;;;;;;;;;;;;;;19.95;100.00;101095.38;2611825;36;19958;-53
2022/08/14 02:19:07;;;;;;;;;;;;;;;19.87;100.00;101082.66;2614445;36;20078;-52
2022/08/14 02:21:35;;;;;;;;;;;;;;;19.92;100.00;101093.84;2613380;36;19953;-53
2022/08/14 02:24:05;;;;;;;;;;;;;;;20.04;100.00;101087.91;2613348;36;19961;-50
2022/08/14 02:26:38;;;;;;;;;;;;;;;20.00;100.00;101095.63;2615116;36;19954;-52
2022/08/14 02:29:08;;;;;;;;;;;;;;;19.89;100.00;101085.19;2614436;36;19962;-50
2022/08/14 02:31:39;;;;;;;;;;;;;;;19.85;100.00;101083.91;2613781;36;19985;-50
2022/08/14 02:34:09;;;;;;;;;;;;;;;19.80;100.00;101083.63;2611762;36;19946;-50
2022/08/14 02:36:37;;;;;;;;;;;;;;;19.81;100.00;101080.69;2612149;36;20414;-48
2022/08/14 02:39:06;;;;;;;;;;;;;;;19.69;100.00;101083.03;2613920;36;19947;-50
2022/08/14 02:41:38;;;;;;;;;;;;;;;19.67;100.00;101078.78;2613622;36;19969;-50
2022/08/14 02:44:08;;;;;;;;;;;;;;;19.61;100.00;101081.25;2612414;36;19951;-50
2022/08/14 02:46:36;;;;;;;;;;;;;;;19.64;100.00;101085.50;2615030;36;20037;-50
2022/08/14 02:49:05;;;;;;;;;;;;;;;19.66;100.00;101088.03;2612722;36;19958;-50
2022/08/14 02:51:33;;;;;;;;;;;;;;;19.64;100.00;101073.72;2613488;36;19950;-51
2022/08/14 02:54:02;;;;;;;;;;;;;;;19.63;100.00;101074.78;2612392;36;19974;-52
2022/08/14 02:56:34;;;;;;;;;;;;;;;19.59;100.00;101068.84;2614318;36;19957;-49
2022/08/14 02:59:05;;;;;;;;;;;;;;;19.49;100.00;101071.84;2613657;36;19951;-50
2022/08/14 03:01:35;;;;;;;;;;;;;;;19.43;100.00;101072.59;2613018;36;19977;-50
2022/08/14 03:04:04;;;;;;;;;;;;;;;19.38;100.00;101077.81;2613718;31;20408;-49
2022/08/14 03:06:33;;;;;;;;;;;;;;;19.49;100.00;101071.84;2614009;31;19953;-53
2022/08/14 03:09:01;;;;;;;;;;;;;;;19.44;100.00;101066.97;2630689;36;20026;-49
2022/08/14 03:11:30;;;;;;;;;;;;;;;19.37;100.00;101078.84;2613115;36;20357;-50
2022/08/14 03:13:58;;;;;;;;;;;;;;;19.33;100.00;101078.38;2612541;36;19951;-49
2022/08/14 03:16:35;;;;;;;;;;;;;;;19.47;100.00;101073.94;2613381;36;19985;-51
2022/08/14 03:19:04;;;;;;;;;;;;;;;19.36;100.00;101071.66;2613761;36;19958;-49
2022/08/14 03:21:35;;;;;;;;;;;;;;;19.29;100.00;101074.31;2613203;36;19951;-50
2022/08/14 03:24:11;;;;;;;;;;;;;;;19.37;100.00;101070.63;2611758;36;19951;-52
2022/08/14 03:26:39;;;;;;;;;;;;;;;19.25;100.00;101070.28;2613700;36;20517;-47
2022/08/14 03:29:08;;;;;;;;;;;;;;;19.14;100.00;101073.47;2613295;36;19950;-47
2022/08/14 03:31:39;;;;;;;;;;;;;;;19.10;100.00;101070.28;2613689;36;19999;-53
2022/08/14 03:34:07;;;;;;;;;;;;;;;19.06;100.00;101063.50;2612132;36;19954;-47
2022/08/14 03:36:35;;;;;;;;;;;;;;;18.97;100.00;101068.19;2614151;36;19977;-47
2022/08/14 03:39:07;;;;;;;;;;;;;;;19.00;100.00;101064.25;2613665;54;19950;-53
2022/08/14 03:41:37;;;;;;;;;;;;;;;18.95;100.00;101066.66;2612786;36;19953;-49
2022/08/14 03:44:06;;;;;;;;;;;;;;;18.91;100.00;101063.47;2612113;36;19977;-48
2022/08/14 03:46:37;;;;;;;;;;;;;;;18.82;100.00;101065.41;2612356;36;19953;-49
2022/08/14 03:49:08;;;;;;;;;;;;;;;18.75;100.00;101061.72;2614209;36;19958;-50
2022/08/14 03:51:37;;;;;;;;;;;;;;;18.74;100.00;101063.63;2613825;36;20364;-50
2022/08/14 03:54:07;;;;;;;;;;;;;;;18.70;100.00;101059.56;2611701;36;19973;-48
2022/08/14 03:56:37;;;;;;;;;;;;;;;18.68;100.00;101068.94;2612662;36;19997;-52
2022/08/14 03:59:10;;;;;;;;;;;;;;;18.65;100.00;101061.13;2613665;36;19942;-48
2022/08/14 04:01:39;;;;;;;;;;;;;;;18.67;100.00;101057.22;2610898;36;20078;-51
2022/08/14 04:04:12;;;;;;;;;;;;;;;18.65;100.00;101051.06;2603497;36;20463;-51
2022/08/14 04:06:40;;;;;;;;;;;;;;;18.58;100.00;101057.44;2602742;36;19981;-50
2022/08/14 04:09:08;;;;;;;;;;;;;;;18.58;100.00;101055.59;2603599;36;20337;-51
2022/08/14 04:11:37;;;;;;;;;;;;;;;18.57;100.00;101048.44;2610159;36;19947;-50
2022/08/14 04:14:05;;;;;;;;;;;;;;;18.53;100.00;101045.22;2611824;36;19954;-51
2022/08/14 04:16:35;;;;;;;;;;;;;;;18.54;100.00;101054.25;2612996;36;19977;-49
2022/08/14 04:19:07;;;;;;;;;;;;;;;18.48;100.00;101055.84;2614944;36;19958;-51
2022/08/14 04:21:38;;;;;;;;;;;;;;;18.39;100.00;101055.06;2613160;36;19950;-54
2022/08/14 04:24:07;;;;;;;;;;;;;;;18.42;100.00;101055.72;2613365;36;20405;-51
2022/08/14 04:26:35;;;;;;;;;;;;;;;18.41;100.00;101056.75;2614961;36;19951;-50
2022/08/14 04:29:03;;;;;;;;;;;;;;;18.44;100.00;101045.50;2614617;31;20409;-50
2022/08/14 04:31:31;;;;;;;;;;;;;;;18.41;100.00;101046.69;2614727;36;20456;-52
2022/08/14 04:34:02;;;;;;;;;;;;;;;18.40;100.00;101045.00;2614497;36;19962;-49
2022/08/14 04:36:30;;;;;;;;;;;;;;;18.43;100.00;101043.78;2614372;36;19947;-53
2022/08/14 04:44:22;;;;;;;;;;;;;;;18.49;100.00;101045.78;2613820;31;19977;-49
2022/08/14 04:49:31;;;;;;;;;;;;;;;18.47;100.00;101045.13;2615493;36;20427;-51
2022/08/14 04:51:59;;;;;;;;;;;;;;;18.43;100.00;101038.34;2613341;36;19953;-48
2022/08/14 04:54:30;;;;;;;;;;;;;;;18.43;100.00;101039.16;2614192;36;19954;-50
2022/08/14 04:56:58;;;;;;;;;;;;;;;18.47;100.00;101040.50;2613748;36;19950;-48
2022/08/14 04:59:27;;;;;;;;;;;;;;;18.50;100.00;101047.47;2614480;36;20319;-48
2022/08/14 05:01:56;;;;;;;;;;;;;;;18.52;100.00;101037.22;2613972;36;20431;-50
2022/08/14 05:04:24;;;;;;;;;;;;;;;18.56;100.00;101036.69;2613448;36;19950;-51
2022/08/14 05:06:54;;;;;;;;;;;;;;;18.54;100.00;101043.34;2612890;36;21927;-50
2022/08/14 05:09:22;;;;;;;;;;;;;;;18.55;100.00;101039.56;2614270;36;19946;-50
2022/08/14 05:11:56;;;;;;;;;;;;;;;18.64;100.00;101037.63;2613414;36;23679;-50
2022/08/14 05:14:26;;;;;;;;;;;;;;;18.68;100.00;101028.06;2613323;36;19947;-52
2022/08/14 05:16:57;;;;;;;;;;;;;;;18.77;100.00;101035.13;2614834;36;20328;-52
2022/08/14 05:19:26;;;;;;;;;;;;;;;18.86;100.00;101031.31;2614390;36;20347;-51
2022/08/14 05:21:55;;;;;;;;;;;;;;;19.00;100.00;101024.16;2612715;36;19954;-50
2022/08/14 05:24:23;;;;;;;;;;;;;;;19.02;100.00;101022.13;2613672;31;19950;-49
2022/08/14 05:26:51;;;;;;;;;;;;;;;18.93;100.00;101020.50;2609682;36;19946;-50
2022/08/14 05:29:22;;;;;;;;;;;;;;;19.02;100.00;101011.19;2614374;36;19958;-49
2022/08/14 05:31:50;;;;;;;;;;;;;;;19.35;100.00;101009.97;2612142;36;20031;-48
2022/08/14 05:34:18;;;;;;;;;;;;;;;19.37;100.00;101007.88;2612861;31;19973;-51
2022/08/14 05:36:46;;;;;;;;;;;;;;;19.38;100.00;101009.56;2612211;36;19977;-52
2022/08/14 05:39:14;;;;;;;;;;;;;;;19.37;100.00;101002.41;2613518;36;20534;-49
2022/08/14 05:41:42;;;;;;;;;;;;;;;19.56;100.00;101014.63;2613346;36;20419;-49
2022/08/14 05:44:11;;;;;;;;;;;;;;;19.46;100.00;101003.16;2612055;36;20504;-49
2022/08/14 05:46:41;;;;;;;;;;;;;;;19.51;100.00;100998.81;2611652;36;19946;-49
2022/08/14 05:49:09;;;;;;;;;;;;;;;19.66;100.00;101008.84;2613346;36;20417;-47
2022/08/14 05:51:38;;;;;;;;;;;;;;;19.65;100.00;101009.88;2612633;36;19985;-53
2022/08/14 05:54:06;;;;;;;;;;;;;;;19.86;100.00;101007.22;2613775;36;19954;-50
2022/08/14 05:56:34;;;;;;;;;;;;;;;19.87;100.00;101003.44;2614340;36;19954;-50
2022/08/14 05:59:02;;;;;;;;;;;;;;;20.00;100.00;101005.47;2614305;36;19947;-50
2022/08/14 06:01:30;;;;;;;;;;;;;;;20.04;100.00;101003.19;2611988;36;20443;-49
2022/08/14 06:04:01;;;;;;;;;;;;;;;20.15;100.00;100994.47;2612430;31;20431;-48
2022/08/14 06:06:29;;;;;;;;;;;;;;;20.36;100.00;100990.00;2613245;36;19946;-48
2022/08/14 06:08:57;;;;;;;;;;;;;;;20.50;100.00;100991.81;2614385;36;19954;-51
2022/08/14 06:11:26;;;;;;;;;;;;;;;20.65;100.00;100983.50;2613174;36;19977;-51
2022/08/14 06:13:54;;;;;;;;;;;;;;;20.54;100.00;100992.25;2611955;36;20038;-48
2022/08/14 06:16:22;;;;;;;;;;;;;;;20.51;100.00;100996.25;2613658;36;19962;-49
2022/08/14 06:18:50;;;;;;;;;;;;;;;20.62;100.00;100990.22;2613696;36;19951;-48
2022/08/14 06:21:21;;;;;;;;;;;;;;;20.87;100.00;100997.16;2611849;36;19946;-48
2022/08/14 06:23:49;;;;;;;;;;;;;;;21.04;100.00;100994.91;2612879;31;19959;-47
2022/08/14 06:26:17;;;;;;;;;;;;;;;21.08;100.00;100993.47;2613356;36;19999;-52
2022/08/14 06:28:45;;;;;;;;;;;;;;;21.03;100.00;100990.50;2613922;36;20436;-49
2022/08/14 06:31:13;;;;;;;;;;;;;;;21.06;100.00;100985.47;2613563;36;19989;-51
2022/08/14 06:33:41;;;;;;;;;;;;;;;21.12;100.00;100979.19;2613860;36;19998;-50
2022/08/14 06:36:10;;;;;;;;;;;;;;;21.28;100.00;100983.47;2612465;36;19950;-49
2022/08/14 06:38:40;;;;;;;;;;;;;;;21.37;100.00;100986.03;2614152;36;19993;-48
2022/08/14 06:41:08;;;;;;;;;;;;;;;21.52;100.00;100978.53;2614136;36;19950;-50
2022/08/14 06:43:36;;;;;;;;;;;;;;;21.82;100.00;100980.91;2613421;36;19978;-47
2022/08/14 06:46:04;;;;;;;;;;;;;;;21.93;100.00;100985.78;2612452;31;20448;-52
2022/08/14 06:48:32;;;;;;;;;;;;;;;22.18;100.00;100974.22;2611904;36;19951;-53
2022/08/14 06:51:01;;;;;;;;;;;;;;;22.50;100.00;100980.78;2611557;36;20488;-50
2022/08/14 06:53:29;;;;;;;;;;;;;;;22.62;100.00;100972.75;2613444;31;19947;-48
2022/08/14 06:56:00;;;;;;;;;;;;;;;22.66;100.00;100979.50;2613645;36;19992;-48
2022/08/14 06:58:28;;;;;;;;;;;;;;;22.72;100.00;100977.81;2612801;36;19951;-51
2022/08/14 07:06:18;;;;;;;;;;;;;;;23.53;100.00;100981.16;2613402;31;20363;-50
2022/08/14 07:08:46;;;;;;;;;;;;;;;23.53;100.00;100978.41;2613724;31;19977;-48
2022/08/14 07:11:21;;;;;;;;;;;;;;;24.03;100.00;100986.81;2615254;36;19957;-50
2022/08/14 07:13:49;;;;;;;;;;;;;;;23.98;100.00;100989.34;2614004;36;20581;-50
2022/08/14 07:16:17;;;;;;;;;;;;;;;24.05;100.00;100984.66;2614048;31;19950;-49
2022/08/14 07:18:45;;;;;;;;;;;;;;;23.93;100.00;100990.03;2612557;36;19950;-49
2022/08/14 07:21:14;;;;;;;;;;;;;;;24.37;100.00;100981.88;2612888;36;19946;-51
2022/08/14 07:23:43;;;;;;;;;;;;;;;24.60;100.00;100977.66;2613741;36;19973;-52
2022/08/14 07:26:12;;;;;;;;;;;;;;;24.51;100.00;100970.75;2611515;36;19988;-49
2022/08/14 07:28:43;;;;;;;;;;;;;;;24.67;100.00;100975.69;2613059;31;19993;-49
2022/08/14 07:31:11;;;;;;;;;;;;;;;24.84;100.00;100968.53;2612671;31;19965;-50
2022/08/14 07:33:40;;;;;;;;;;;;;;;25.23;100.00;100970.22;2613101;36;20471;-50
2022/08/14 07:36:11;;;;;;;;;;;;;;;25.11;100.00;100970.97;2612292;36;19947;-52
2022/08/14 07:38:39;;;;;;;;;;;;;;;25.34;100.00;100967.53;2614340;36;20038;-47
2022/08/14 07:41:09;;;;;;;;;;;;;;;25.48;100.00;100976.47;2613892;36;19951;-49
2022/08/14 07:43:37;;;;;;;;;;;;;;;25.42;100.00;100969.13;2614106;31;20038;-54
2022/08/14 07:46:08;;;;;;;;;;;;;;;25.32;100.00;100964.19;2612863;36;19977;-54
2022/08/14 07:48:40;;;;;;;;;;;;;;;25.62;100.00;100962.53;2614654;36;20002;-51
2022/08/14 07:51:08;;;;;;;;;;;;;;;25.72;100.00;100960.00;2612788;36;20332;-50
2022/08/14 07:53:36;;;;;;;;;;;;;;;26.04;100.00;100965.28;2613174;36;20445;-52
2022/08/14 07:56:04;;;;;;;;;;;;;;;26.11;100.00;100949.47;2612721;36;20383;-53
2022/08/14 07:58:32;;;;;;;;;;;;;;;26.45;100.00;100948.91;2614742;36;19958;-51
2022/08/14 08:01:08;;;;;;;;;;;;;;;26.59;100.00;100944.84;2602223;36;19950;-54
2022/08/14 08:03:39;;;;;;;;;;;;;;;26.68;100.00;100942.59;2589381;36;19953;-49
2022/08/14 08:06:08;;;;;;;;;;;;;;;26.59;100.00;100950.34;2608537;31;19957;-49
2022/08/14 08:08:36;;;;;;;;;;;;;;;26.55;100.00;100957.44;2609303;36;19950;-52
2022/08/14 08:11:05;;;;;;;;;;;;;;;26.93;100.00;100951.41;2610447;36;19962;-51
2022/08/14 08:13:34;;;;;;;;;;;;;;;27.34;100.00;100956.13;2609640;36;19950;-55
2022/08/14 08:16:05;;;;;;;;;;;;;;;27.42;100.00;100941.94;2611734;36;19973;-52
2022/08/14 08:18:33;;;;;;;;;;;;;;;27.10;100.00;100942.38;2611067;31;19954;-53
2022/08/14 08:21:04;;;;;;;;;;;;;;;27.38;100.00;100935.22;2613117;36;20356;-51
2022/08/14 08:23:36;;;;;;;;;;;;;;;27.56;100.00;100932.25;2613209;31;20345;-49
2022/08/14 08:26:04;;;;;;;;;;;;;;;27.62;100.00;100934.03;2613055;31;19953;-51
2022/08/14 08:28:32;;;;;;;;;;;;;;;27.64;100.00;100932.94;2613744;36;19951;-53
2022/08/14 08:31:01;;;;;;;;;;;;;;;27.62;100.00;100934.03;2614411;36;20436;-53
2022/08/14 08:33:31;;;;;;;;;;;;;;;27.59;100.00;100931.75;2612221;36;19981;-52
2022/08/14 08:36:00;;;;;;;;;;;;;;;27.71;99.19;100925.31;2613336;36;20437;-54
2022/08/14 08:38:30;;;;;;;;;;;;;;;27.53;100.00;100924.47;2613049;36;19966;-53
2022/08/14 08:41:00;;;;;;;;;;;;;;;27.62;100.00;100922.97;2613889;36;19953;-53
2022/08/14 08:43:29;;;;;;;;;;;;;;;27.77;100.00;100919.63;2613679;36;19946;-54
2022/08/14 08:45:59;;;;;;;;;;;;;;;27.91;100.00;100916.53;2614969;36;19951;-54
2022/08/14 08:48:29;;;;;;;;;;;;;;;28.21;99.41;100923.69;2614061;31;19951;-54
2022/08/14 08:50:57;;;;;;;;;;;;;;;28.45;94.38;100905.78;2613020;36;20332;-52
2022/08/14 08:53:31;;;;;;;;;;;;;;;28.74;98.44;100896.50;2613641;36;19947;-56
2022/08/14 08:56:02;;;;;;;;;;;;;;;28.39;94.25;100898.50;2612859;36;19954;-52
2022/08/14 08:58:30;;;;;;;;;;;;;;;28.47;94.73;100897.22;2614068;36;19946;-54
2022/08/14 09:01:00;;;;;;;;;;;;;;;28.83;97.38;100903.31;2613635;31;19957;-53
2022/08/14 09:03:30;;;;;;;;;;;;;;;28.91;89.01;100902.84;2613010;36;19958;-54
2022/08/14 09:06:01;;;;;;;;;;;;;;;28.98;84.43;100900.72;2610789;36;20549;-55
2022/08/14 09:08:30;;;;;;;;;;;;;;;29.54;84.56;100899.69;2611274;36;19954;-53
2022/08/14 09:11:08;;;;;;;;;;;;;;;29.62;84.93;100907.53;2611979;36;19953;-52
2022/08/14 09:13:36;;;;;;;;;;;;;;;28.95;81.90;100905.94;2603984;36;20512;-53
2022/08/14 09:16:05;;;;;;;;;;;;;;;29.31;83.00;100910.00;2613745;36;19958;-53
2022/08/14 09:18:33;;;;;;;;;;;;;;;29.31;83.19;100910.00;2610173;36;21972;-54
2022/08/14 09:21:01;;;;;;;;;;;;;;;29.67;76.43;100902.03;2609065;31;19994;-53
2022/08/14 09:23:29;;;;;;;;;;;;;;;29.88;72.57;100902.25;2609975;36;19969;-54
2022/08/14 09:25:57;;;;;;;;;;;;;;;29.82;72.24;100892.22;2611483;36;20019;-55
2022/08/14 09:28:28;;;;;;;;;;;;;;;29.87;78.19;100886.69;2612570;36;19951;-55
2022/08/14 09:30:57;;;;;;;;;;;;;;;29.95;76.31;100888.16;2613715;36;20348;-54
2022/08/14 09:33:33;;;;;;;;;;;;;;;29.98;75.33;100885.69;2613413;36;19958;-52
2022/08/14 09:36:19;;;;;;;;;;;;;;;29.96;71.48;100873.16;2612631;36;19958;-52
2022/08/14 09:38:48;;;;;;;;;;;;;;;29.93;77.44;100874.53;2612408;36;19966;-53
2022/08/14 09:41:25;;;;;;;;;;;;;;;30.26;69.70;100866.16;2612601;36;19947;-54
2022/08/14 09:44:00;;;;;;;;;;;;;;;30.42;69.38;100867.97;2614220;36;19947;-57
2022/08/14 09:46:29;;;;;;;;;;;;;;;30.44;70.54;100864.91;2613723;36;19981;-55
2022/08/14 09:49:01;;;;;;;;;;;;;;;30.80;67.55;100862.28;2613347;31;19961;-54
2022/08/14 09:51:30;;;;;;;;;;;;;;;30.89;64.24;100850.38;2610875;36;19993;-56
2022/08/14 09:54:05;;;;;;;;;;;;;;;30.50;64.85;100844.38;2612545;36;19947;-52
2022/08/14 09:56:45;;;;;;;;;;;;;;;30.89;67.28;100855.94;2611326;36;19946;-53
2022/08/14 09:59:20;;;;;;;;;;;;;;;30.99;61.71;100837.63;2610312;31;19958;-51
2022/08/14 10:01:50;;;;;;;;;;;;;;;30.86;64.32;100841.75;2608342;36;19957;-52
2022/08/14 10:04:23;;;;;;;;;;;;;;;31.22;61.15;100836.31;2612596;36;20458;-52
2022/08/14 10:06:52;;;;;;;;;;;;;;;31.28;63.82;100838.00;2612885;36;19977;-52
2022/08/14 10:09:20;;;;;;;;;;;;;;;31.01;58.67;100822.38;2611756;36;19973;-52
2022/08/14 10:11:56;;;;;;;;;;;;;;;31.32;58.85;100830.78;2608377;36;19946;-53
2022/08/14 10:14:31;;;;;;;;;;;;;;;31.16;56.84;100818.78;2611605;36;19959;-56
2022/08/14 10:17:03;;;;;;;;;;;;;;;31.18;58.29;100815.72;2602711;36;20576;-51
2022/08/14 10:19:32;;;;;;;;;;;;;;;31.08;57.21;100811.84;2609462;36;19962;-53
2022/08/14 10:22:02;;;;;;;;;;;;;;;31.44;55.02;100814.63;2609965;36;19947;-57
2022/08/14 10:24:31;;;;;;;;;;;;;;;31.35;57.16;100804.38;2610430;31;19946;-53
2022/08/14 10:27:00;;;;;;;;;;;;;;;31.41;55.82;100798.50;2609189;36;20688;-54
2022/08/14 10:29:36;;;;;;;;;;;;;;;31.85;55.41;100802.69;2609619;36;20514;-52
2022/08/14 10:32:04;;;;;;;;;;;;;;;32.09;53.46;100797.34;2607400;36;19951;-50
2022/08/14 10:34:33;;;;;;;;;;;;;;;32.51;53.83;100797.22;2607956;36;19982;-56
2022/08/14 10:37:06;;;;;;;;;;;;;;;32.59;50.39;100793.88;2607338;36;19957;-52
2022/08/14 10:39:34;;;;;;;;;;;;;;;32.30;51.86;100791.75;2608191;36;19953;-51
2022/08/14 10:42:04;;;;;;;;;;;;;;;32.19;52.69;100790.13;2611041;36;19951;-55
2022/08/14 10:44:38;;;;;;;;;;;;;;;32.58;53.49;100781.03;2607693;36;19954;-51
2022/08/14 10:47:09;;;;;;;;;;;;;;;32.59;51.03;100777.97;2606687;36;19976;-50
2022/08/14 10:49:37;;;;;;;;;;;;;;;32.72;53.04;100773.75;2610803;36;19974;-51
2022/08/14 10:52:07;;;;;;;;;;;;;;;32.23;51.96;100768.94;2607323;36;19969;-52
2022/08/14 10:54:37;;;;;;;;;;;;;;;32.33;49.32;100760.53;2609508;36;19973;-54
2022/08/14 10:57:14;;;;;;;;;;;;;;;32.61;52.06;100758.19;2609484;31;19953;-52
2022/08/14 10:59:49;;;;;;;;;;;;;;;32.81;53.03;100763.66;2609935;36;19977;-51
2022/08/14 11:02:19;;;;;;;;;;;;;;;32.68;50.97;100755.13;2607465;31;19951;-52
2022/08/14 11:04:47;;;;;;;;;;;;;;;32.68;51.56;100757.91;2607281;31;20395;-50
2022/08/14 11:07:16;;;;;;;;;;;;;;;32.66;47.62;100760.94;2608653;36;19970;-52
2022/08/14 11:09:54;;;;;;;;;;;;;;;32.71;49.04;100752.56;2613628;36;20036;-52
2022/08/14 11:12:22;;;;;;;;;;;;;;;32.97;50.30;100756.03;2609839;31;20387;-51
2022/08/14 11:14:58;;;;;;;;;;;;;;;32.94;46.52;100750.22;2613565;36;19939;-52
2022/08/14 11:17:27;;;;;;;;;;;;;;;33.27;48.17;100759.72;2613150;36;19954;-49
2022/08/14 11:19:59;;;;;;;;;;;;;;;33.17;49.88;100765.38;2612963;36;19954;-53
2022/08/14 11:22:29;;;;;;;;;;;;;;;32.98;49.59;100751.28;2611610;36;20451;-51
2022/08/14 11:25:00;;;;;;;;;;;;;;;33.06;49.69;100752.63;2612927;36;20001;-49
2022/08/14 11:27:30;;;;;;;;;;;;;;;33.26;46.46;100740.50;2612088;36;20416;-53
2022/08/14 11:30:02;;;;;;;;;;;;;;;32.75;47.50;100742.53;2613393;36;19957;-51
2022/08/14 11:32:30;;;;;;;;;;;;;;;32.72;48.34;100737.53;2609983;36;19951;-52
2022/08/14 11:34:58;;;;;;;;;;;;;;;33.34;46.26;100731.53;2613160;36;20075;-52
2022/08/14 11:37:27;;;;;;;;;;;;;;;33.58;46.30;100725.16;2613353;36;19958;-50
2022/08/14 11:39:55;;;;;;;;;;;;;;;34.21;41.55;100721.38;2612414;36;19947;-51
2022/08/14 11:42:25;;;;;;;;;;;;;;;34.82;41.84;100716.97;2614003;36;19979;-52
2022/08/14 11:44:53;;;;;;;;;;;;;;;34.54;42.41;100724.31;2611024;36;19950;-49
2022/08/14 11:47:23;;;;;;;;;;;;;;;34.28;42.84;100721.88;2611299;36;19962;-51
2022/08/14 11:49:52;;;;;;;;;;;;;;;34.57;42.75;100707.78;2614818;36;19958;-50
2022/08/14 11:52:20;;;;;;;;;;;;;;;34.84;40.63;100711.91;2614084;31;20002;-49
2022/08/14 11:54:59;;;;;;;;;;;;;;;34.07;43.51;100715.72;2614136;36;19950;-49
2022/08/14 11:57:29;;;;;;;;;;;;;;;32.70;43.73;100711.91;2613800;36;20416;-48
2022/08/14 12:00:04;;;;;;;;;;;;;;;32.03;44.61;100714.13;2615193;36;20405;-49
2022/08/14 12:02:35;;;;;;;;;;;;;;;32.27;43.83;100719.91;2613399;36;19981;-53
2022/08/14 12:05:03;;;;;;;;;;;;;;;32.53;44.06;100714.22;2613092;36;19946;-51
2022/08/14 12:07:31;;;;;;;;;;;;;;;32.51;45.93;100714.50;2612720;36;19985;-51
2022/08/14 12:09:59;;;;;;;;;;;;;;;32.56;44.18;100710.84;2613501;36;20050;-50
2022/08/14 12:12:28;;;;;;;;;;;;;;;32.63;42.45;100711.38;2613818;36;19950;-47
2022/08/14 12:14:58;;;;;;;;;;;;;;;33.49;40.13;100706.25;2613112;31;20001;-51
2022/08/14 12:17:28;;;;;;;;;;;;;;;33.93;40.90;100710.00;2612680;36;19950;-49
2022/08/14 12:20:00;;;;;;;;;;;;;;;34.27;38.70;100708.22;2614393;36;19951;-49
2022/08/14 12:22:35;;;;;;;;;;;;;;;33.53;43.40;100717.66;2614099;31;19943;-53
2022/08/14 12:25:04;;;;;;;;;;;;;;;33.68;41.89;100711.91;2613368;36;19950;-50
2022/08/14 12:27:36;;;;;;;;;;;;;;;33.97;45.43;100699.09;2614162;36;20447;-54
2022/08/14 12:30:05;;;;;;;;;;;;;;;33.74;45.58;100695.97;2614182;36;20340;-51
2022/08/14 12:32:43;;;;;;;;;;;;;;;33.95;44.25;100702.19;2612432;36;19946;-53
2022/08/14 12:35:14;;;;;;;;;;;;;;;34.52;42.85;100691.09;2614316;36;19970;-52
2022/08/14 12:37:49;;;;;;;;;;;;;;;34.55;40.77;100684.91;2614205;36;19985;-50
2022/08/14 12:40:20;;;;;;;;;;;;;;;34.76;42.78;100681.78;2614708;31;19946;-49
2022/08/14 12:42:48;;;;;;;;;;;;;;;34.91;40.08;100683.56;2614889;36;19958;-51
2022/08/14 12:45:16;;;;;;;;;;;;;;;35.37;41.23;100674.38;2614272;36;19969;-49
2022/08/14 12:47:45;;;;;;;;;;;;;;;35.54;40.93;100671.00;2614812;36;19981;-52
2022/08/14 12:50:16;;;;;;;;;;;;;;;35.18;40.26;100668.81;2614457;36;19954;-51
2022/08/14 12:52:45;;;;;;;;;;;;;;;34.59;41.63;100659.16;2613673;36;19954;-51
2022/08/14 12:55:17;;;;;;;;;;;;;;;34.54;42.70;100655.31;2614325;36;19985;-48
2022/08/14 12:57:46;;;;;;;;;;;;;;;34.31;42.92;100656.22;2615146;31;19993;-53
2022/08/14 13:00:16;;;;;;;;;;;;;;;34.16;42.83;100658.06;2614582;36;20006;-52